Hauptseite
METAR-TAF:

METAR-TAF

Flughäfen :

Tiree Airport

Tiree, Schottland

Breite: 56-30N, Länge: 006-53W, Höhe: 12 m

Beobachtung

Neuester Wetterbericht von vor 42 Minuten, um 12:20 UTC
Wind 7 kt aus Süd, variierte zwischen Südost und Süd/Südwest
Temperatur 13°C
Luftfeuchtigkeit 77%
Luftdruck 1037 hPa
Sichtweite 10 km oder mehr

METAR: EGPU 271220Z AUTO 17007KT 130V210 9999 NCD 13/09 Q1037

Zeit: 14:02 (13:02 UTC)

Prognose

Neuester Wetterbericht von vor 5 Stunden und 0 Minuten, um 08:02 UTC
Gültige Prognose vom 27 um 09 UTC bis 27 um 18 UTC
Wind 8 kt aus Süd
Sichtweite 10 km oder mehr
Leicht bewölkt in der Höhe von 600 ft
Aufgelockert bewölkt in der Höhe von 2000 ft
Wahrscheinlichkeit 30% :
Zeitweise
vom 27 um 09 UTC bis 27 um 11 UTC
Sichtweite: 6000 m
Durchbrochene Bewölkung in der Höhe von 600 ft

TAF: EGPU 270802Z 2709/2718 17008KT 9999 FEW006 SCT020 PROB30 TEMPO 2709/2711 6000 BKN006

Wetterbeobachtungen und Prognosen von mehr als 4000 Flughäfen (METAR und TAF Bericht).

Die verfügbaren Stationen werden durch gelbe und rote Markierungen auf der Karte dargestellt.

Führen Sie die Maus auf sie, um den Namen der Station zu sehen.

Darauf klicken, um die Beobachtung von Wetterbeobachtungen und Prognosen zu sehen.

Um die Karte zu ändern : klicken Sie auf den grünen Tasten mit einem schwarzen Kreuz Zum Vergrößern, auf den grünen Button mit einem Gedankenstrich zu verkleinern, oder auf die grünen Pfeile für benachbarte Karten.


METAR-TAF: